createdAt,value
2023-03-27T00:01:26.923Z,4.30
2023-03-27T00:03:56.873Z,4.40
2023-03-27T00:06:27.248Z,4.40
2023-03-27T00:08:55.849Z,4.30
2023-03-27T00:11:25.360Z,4.40
2023-03-27T00:13:54.931Z,4.40
2023-03-27T00:16:25.589Z,4.40
2023-03-27T00:18:54.398Z,4.40
2023-03-27T00:21:26.151Z,4.30
2023-03-27T00:23:56.642Z,4.40
2023-03-27T00:26:24.940Z,4.30
2023-03-27T00:28:54.906Z,4.30
2023-03-27T00:31:23.317Z,4.30
2023-03-27T00:33:51.765Z,4.30
2023-03-27T00:36:20.146Z,4.20
2023-03-27T00:38:53.398Z,4.20
2023-03-27T00:41:22.265Z,4.20
2023-03-27T00:43:54.682Z,4.20
2023-03-27T00:46:32.568Z,4.20
2023-03-27T00:49:04.936Z,4.20
2023-03-27T00:51:34.174Z,4.20
2023-03-27T00:54:04.736Z,4.10
2023-03-27T00:56:34.254Z,4.10
2023-03-27T00:59:06.829Z,4.10
2023-03-27T01:01:35.346Z,4.10
2023-03-27T01:04:07.024Z,4.10
2023-03-27T01:06:35.648Z,4.10
2023-03-27T01:09:05.862Z,4.10
2023-03-27T01:11:43.688Z,4.10
2023-03-27T01:14:21.265Z,4.10
2023-03-27T01:17:02.259Z,4.10
2023-03-27T01:19:55.154Z,4.10
2023-03-27T01:22:55.669Z,4.10
2023-03-27T01:25:45.892Z,4.10
2023-03-27T01:28:26.417Z,4.10
2023-03-27T01:31:01.543Z,4.20
2023-03-27T01:33:58.845Z,4.10
2023-03-27T01:37:06.288Z,3.90
2023-03-27T01:39:46.066Z,3.70
2023-03-27T01:42:21.927Z,3.60
2023-03-27T01:44:55.375Z,3.50
2023-03-27T01:47:33.341Z,3.40
2023-03-27T01:50:09.546Z,3.30
2023-03-27T01:52:40.985Z,3.20
2023-03-27T01:55:19.401Z,3.00
2023-03-27T01:58:03.499Z,2.90
2023-03-27T02:00:51.649Z,2.80
2023-03-27T02:03:38.164Z,2.70
2023-03-27T02:06:12.908Z,2.50
2023-03-27T02:08:46.783Z,2.30
2023-03-27T02:11:16.981Z,2.10
2023-03-27T02:13:49.132Z,2.00
2023-03-27T02:16:21.610Z,1.80
2023-03-27T02:19:23.611Z,1.70
2023-03-27T02:21:55.162Z,1.50
2023-03-27T02:24:24.504Z,1.40
2023-03-27T02:27:02.005Z,1.30
2023-03-27T02:29:48.036Z,1.20
2023-03-27T02:32:51.233Z,1.10
2023-03-27T02:35:31.788Z,1.10
2023-03-27T02:38:09.866Z,1.10
2023-03-27T02:40:46.930Z,1.00
2023-03-27T02:43:20.910Z,0.90
2023-03-27T02:45:55.116Z,0.80
2023-03-27T02:48:29.120Z,0.80
2023-03-27T02:51:02.353Z,0.70
2023-03-27T02:53:37.082Z,0.70
2023-03-27T02:56:10.344Z,0.60
2023-03-27T02:58:47.835Z,0.50
2023-03-27T03:01:17.876Z,0.50
2023-03-27T03:03:53.888Z,0.50
2023-03-27T03:06:31.827Z,0.50
2023-03-27T03:09:04.796Z,0.40
2023-03-27T03:11:36.466Z,0.40
2023-03-27T03:14:07.214Z,0.40
2023-03-27T03:16:36.170Z,0.30
2023-03-27T03:19:05.396Z,0.30
2023-03-27T03:21:33.862Z,0.30
2023-03-27T03:24:02.276Z,0.20
2023-03-27T03:26:36.809Z,0.20
2023-03-27T03:29:16.139Z,0.20
2023-03-27T03:31:44.798Z,0.20
2023-03-27T03:34:17.042Z,0.30
2023-03-27T03:36:49.175Z,0.30
2023-03-27T03:39:19.130Z,0.20
2023-03-27T03:41:47.878Z,0.20
2023-03-27T03:44:19.609Z,0.20
2023-03-27T03:46:56.193Z,0.20
2023-03-27T03:49:27.645Z,0.20
2023-03-27T03:52:03.297Z,0.20
2023-03-27T03:54:41.220Z,0.20
2023-03-27T03:57:10.038Z,0.20
2023-03-27T03:59:41.365Z,0.20
2023-03-27T04:02:12.468Z,0.20
2023-03-27T04:04:45.412Z,0.20
2023-03-27T04:07:17.836Z,0.20
2023-03-27T04:09:46.496Z,0.20
2023-03-27T04:12:15.608Z,0.20
2023-03-27T04:14:47.806Z,0.10
2023-03-27T04:17:30.580Z,0.10
2023-03-27T04:20:07.373Z,0.10
2023-03-27T04:22:40.951Z,0.00
2023-03-27T04:25:16.834Z,0.00
2023-03-27T04:27:45.959Z,0.00
2023-03-27T04:30:17.396Z,0.00
2023-03-27T04:32:46.117Z,0.00
2023-03-27T04:35:15.869Z,0.00
2023-03-27T04:37:50.594Z,0.00
2023-03-27T04:40:26.154Z,0.00
2023-03-27T04:42:58.676Z,0.00
2023-03-27T04:45:32.377Z,0.00
2023-03-27T04:48:00.770Z,0.00
2023-03-27T04:50:29.366Z,0.00
2023-03-27T04:53:02.244Z,0.00
2023-03-27T04:55:30.633Z,0.00
2023-03-27T04:58:00.240Z,0.00
2023-03-27T05:00:30.283Z,0.00
2023-03-27T05:03:01.177Z,0.00
2023-03-27T05:05:29.806Z,0.00
2023-03-27T05:08:03.934Z,0.10
2023-03-27T05:10:32.775Z,0.10
2023-03-27T05:13:14.613Z,0.10
2023-03-27T05:15:44.916Z,0.10
2023-03-27T05:18:16.767Z,0.10
2023-03-27T05:20:49.031Z,0.20
2023-03-27T05:26:12.046Z,0.10
2023-03-27T05:28:51.614Z,0.10
2023-03-27T05:31:23.425Z,0.10
2023-03-27T05:33:52.810Z,0.10
2023-03-27T05:36:23.272Z,0.10
2023-03-27T05:38:58.704Z,0.10
2023-03-27T05:44:20.577Z,0.20
2023-03-27T05:47:42.523Z,0.20
2023-03-27T05:50:47.336Z,0.20
2023-03-27T05:53:32.794Z,0.20
2023-03-27T05:57:09.261Z,0.20
2023-03-27T06:00:19.164Z,0.20
2023-03-27T06:03:15.701Z,0.20
2023-03-27T06:09:58.884Z,0.20
2023-03-27T06:12:44.761Z,0.10
2023-03-27T06:15:17.669Z,0.10
2023-03-27T06:17:51.175Z,0.10
2023-03-27T06:20:21.669Z,0.10
2023-03-27T06:23:09.745Z,0.10
2023-03-27T06:26:22.492Z,0.10
2023-03-27T06:29:08.795Z,0.10
2023-03-27T06:31:40.693Z,0.20
2023-03-27T06:34:16.460Z,0.20
2023-03-27T06:36:45.365Z,0.20
2023-03-27T06:39:17.349Z,0.30
2023-03-27T06:41:46.595Z,0.40
2023-03-27T06:44:34.615Z,0.40
2023-03-27T06:51:25.442Z,0.30
2023-03-27T06:54:20.462Z,0.20
2023-03-27T06:57:00.193Z,0.10
2023-03-27T06:59:32.496Z,0.10
2023-03-27T07:05:05.336Z,0.20
2023-03-27T07:07:57.551Z,0.20
2023-03-27T07:11:32.304Z,0.20
2023-03-27T07:14:08.315Z,0.30
2023-03-27T07:17:03.910Z,0.30
2023-03-27T07:19:51.101Z,0.30
2023-03-27T07:22:20.655Z,0.30
2023-03-27T07:25:06.665Z,0.30
2023-03-27T07:27:39.101Z,0.30
2023-03-27T07:30:13.393Z,0.30
2023-03-27T07:32:47.271Z,0.30
2023-03-27T07:35:18.558Z,0.40
2023-03-27T07:38:06.322Z,0.40
2023-03-27T07:40:43.081Z,0.50
2023-03-27T07:43:17.067Z,0.50
2023-03-27T07:45:45.828Z,0.50
2023-03-27T07:48:20.334Z,0.50
2023-03-27T07:50:51.834Z,0.60
2023-03-27T07:53:34.266Z,0.60
2023-03-27T07:56:03.781Z,0.70
2023-03-27T07:58:39.191Z,0.80
2023-03-27T08:01:11.690Z,0.80
2023-03-27T08:03:42.028Z,1.00
2023-03-27T08:06:14.616Z,1.20
2023-03-27T08:08:45.925Z,1.50
2023-03-27T08:11:29.578Z,1.60
2023-03-27T08:13:59.736Z,1.70
2023-03-27T08:16:30.029Z,1.90
2023-03-27T08:19:00.935Z,2.20
2023-03-27T08:21:33.332Z,2.50
2023-03-27T08:24:02.783Z,2.50
2023-03-27T08:26:31.845Z,2.40
2023-03-27T08:29:03.826Z,2.20
2023-03-27T08:31:41.264Z,2.10
2023-03-27T08:34:12.929Z,2.20
2023-03-27T08:36:43.915Z,2.00
2023-03-27T08:39:14.411Z,2.00
2023-03-27T08:41:49.923Z,2.10
2023-03-27T08:44:22.269Z,2.50
2023-03-27T08:46:54.972Z,2.80
2023-03-27T08:49:32.673Z,2.90
2023-03-27T08:52:05.405Z,2.50
2023-03-27T08:54:37.151Z,2.20
2023-03-27T08:57:18.861Z,2.00
2023-03-27T09:07:37.383Z,2.00
2023-03-27T09:10:18.529Z,2.20
2023-03-27T09:13:05.902Z,2.40
2023-03-27T09:15:39.563Z,2.20
2023-03-27T09:18:12.515Z,2.00
2023-03-27T09:20:44.851Z,2.10
2023-03-27T09:23:22.000Z,2.20
2023-03-27T09:25:55.902Z,2.30
2023-03-27T09:28:30.899Z,2.20
2023-03-27T09:31:02.381Z,2.30
2023-03-27T09:33:31.289Z,3.10
2023-03-27T09:36:00.268Z,4.10
2023-03-27T09:38:35.625Z,4.70
2023-03-27T09:41:08.171Z,5.50
2023-03-27T09:43:42.137Z,5.70
2023-03-27T09:46:11.520Z,5.60
2023-03-27T09:48:47.168Z,5.30
2023-03-27T09:51:42.468Z,4.70
2023-03-27T09:54:14.792Z,3.70
2023-03-27T09:56:46.545Z,3.20
2023-03-27T09:59:27.302Z,2.70
2023-03-27T10:01:59.726Z,2.30
2023-03-27T10:04:30.305Z,2.20
2023-03-27T10:07:02.267Z,2.10
2023-03-27T10:09:34.601Z,2.40
2023-03-27T10:12:10.154Z,3.60
2023-03-27T10:14:42.503Z,5.00
2023-03-27T10:17:23.149Z,6.30
2023-03-27T10:19:53.453Z,7.50
2023-03-27T10:22:28.368Z,8.10
2023-03-27T10:25:02.360Z,8.00
2023-03-27T10:27:34.221Z,7.60
2023-03-27T10:30:02.944Z,7.30
2023-03-27T10:32:45.157Z,7.20
2023-03-27T10:35:24.740Z,7.70
2023-03-27T10:37:53.460Z,7.60
2023-03-27T10:40:29.931Z,6.70
2023-03-27T10:43:03.193Z,5.30
2023-03-27T10:45:34.294Z,4.20
2023-03-27T10:48:06.388Z,3.90
2023-03-27T10:50:43.209Z,3.70
2023-03-27T10:53:18.424Z,3.80
2023-03-27T10:55:57.292Z,4.50
2023-03-27T10:58:32.639Z,5.10
2023-03-27T11:01:06.969Z,5.40
2023-03-27T11:03:46.967Z,4.90
2023-03-27T11:06:18.060Z,4.10
2023-03-27T11:08:56.223Z,3.60
2023-03-27T11:11:29.738Z,4.10
2023-03-27T11:14:02.599Z,5.50
2023-03-27T11:16:35.811Z,6.60
2023-03-27T11:19:23.598Z,7.10
2023-03-27T11:21:55.225Z,6.80
2023-03-27T11:24:34.949Z,5.90
2023-03-27T11:27:09.991Z,5.30
2023-03-27T11:29:44.002Z,5.00
2023-03-27T11:32:21.335Z,4.70
2023-03-27T11:34:58.883Z,4.50
2023-03-27T11:37:35.960Z,4.10
2023-03-27T11:40:10.428Z,4.00
2023-03-27T11:42:44.426Z,4.60
2023-03-27T11:45:14.505Z,5.90
2023-03-27T11:48:10.878Z,7.10
2023-03-27T11:50:49.442Z,8.20
2023-03-27T11:53:34.737Z,8.20
2023-03-27T11:56:14.266Z,7.40
2023-03-27T11:59:02.841Z,6.80
2023-03-27T12:01:39.783Z,7.00
2023-03-27T12:04:20.328Z,7.90
2023-03-27T12:06:59.665Z,8.30
2023-03-27T12:09:52.670Z,8.40
2023-03-27T12:12:36.192Z,8.60
2023-03-27T12:15:20.358Z,8.70
2023-03-27T12:17:58.859Z,7.70
2023-03-27T12:20:55.216Z,6.20
2023-03-27T12:23:55.683Z,4.90
2023-03-27T12:26:48.901Z,3.70
2023-03-27T12:29:33.413Z,3.10
2023-03-27T12:32:19.744Z,2.80
2023-03-27T12:34:53.583Z,3.00
2023-03-27T12:37:27.370Z,3.90
2023-03-27T12:39:59.102Z,5.40
2023-03-27T12:42:51.852Z,6.00
2023-03-27T12:45:22.402Z,5.60
2023-03-27T12:48:17.745Z,5.70
2023-03-27T12:50:57.256Z,6.60
2023-03-27T12:53:48.896Z,7.30
2023-03-27T12:56:38.323Z,6.60
2023-03-27T12:59:24.780Z,5.80
2023-03-27T13:02:22.910Z,5.00
2023-03-27T13:05:23.971Z,5.00
2023-03-27T13:08:10.352Z,5.90
2023-03-27T13:10:51.696Z,7.00
2023-03-27T13:13:54.602Z,8.20
2023-03-27T13:16:44.106Z,8.10
2023-03-27T13:19:26.613Z,7.60
2023-03-27T13:22:11.222Z,7.70
2023-03-27T13:24:59.409Z,7.50
2023-03-27T13:27:42.471Z,6.90
2023-03-27T13:30:42.318Z,6.00
2023-03-27T13:33:15.078Z,5.20
2023-03-27T13:35:53.503Z,5.10
2023-03-27T13:38:59.982Z,5.30
2023-03-27T13:42:04.105Z,5.30
2023-03-27T13:45:00.617Z,5.20
2023-03-27T13:48:07.059Z,5.70
2023-03-27T13:51:14.640Z,6.00
2023-03-27T13:54:08.516Z,6.40
2023-03-27T13:56:56.006Z,6.60
2023-03-27T14:00:04.125Z,6.90
2023-03-27T14:03:14.197Z,7.40
2023-03-27T14:06:26.081Z,7.40
2023-03-27T14:09:06.870Z,6.70
2023-03-27T14:11:59.648Z,6.50
2023-03-27T14:14:43.225Z,6.40
2023-03-27T14:17:27.561Z,6.30
2023-03-27T14:20:20.218Z,5.80
2023-03-27T14:22:56.834Z,5.50
2023-03-27T14:25:30.815Z,5.10
2023-03-27T14:28:00.322Z,4.70
2023-03-27T14:30:30.521Z,4.50
2023-03-27T14:33:10.970Z,4.30
2023-03-27T14:35:44.548Z,4.10
2023-03-27T14:38:23.378Z,4.30
2023-03-27T14:40:53.265Z,4.80
2023-03-27T14:43:22.308Z,5.30
2023-03-27T14:45:56.844Z,5.50
2023-03-27T14:48:27.991Z,5.80
2023-03-27T14:51:05.340Z,6.10
2023-03-27T14:53:37.860Z,5.90
2023-03-27T14:56:13.316Z,5.50
2023-03-27T14:58:48.786Z,5.00
2023-03-27T15:01:18.468Z,4.70
2023-03-27T15:03:47.505Z,4.50
2023-03-27T15:06:21.102Z,4.30
2023-03-27T15:08:53.630Z,4.10
2023-03-27T15:11:27.296Z,4.00
2023-03-27T15:14:03.503Z,3.90
2023-03-27T15:16:36.033Z,3.10
2023-03-27T15:19:33.023Z,2.20
2023-03-27T15:22:21.219Z,1.70
2023-03-27T15:25:04.048Z,1.50
2023-03-27T15:27:38.929Z,1.30
2023-03-27T15:30:11.644Z,1.50
2023-03-27T15:32:50.735Z,2.20
2023-03-27T15:35:23.658Z,2.60
2023-03-27T15:37:53.925Z,3.00
2023-03-27T15:40:42.447Z,4.00
2023-03-27T15:43:28.709Z,4.20
2023-03-27T15:46:11.433Z,4.40
2023-03-27T15:48:44.164Z,4.90
2023-03-27T15:51:28.071Z,5.60
2023-03-27T15:53:57.941Z,5.90
2023-03-27T15:56:29.272Z,5.80
2023-03-27T15:59:00.576Z,6.30
2023-03-27T16:01:32.826Z,6.30
2023-03-27T16:04:10.227Z,5.90
2023-03-27T16:06:41.322Z,5.10
2023-03-27T16:09:23.414Z,5.10
2023-03-27T16:11:52.942Z,4.90
2023-03-27T16:14:30.394Z,4.10
2023-03-27T16:17:49.976Z,3.40
2023-03-27T16:20:51.814Z,2.90
2023-03-27T16:23:26.210Z,2.60
2023-03-27T16:25:56.896Z,2.40
2023-03-27T16:28:29.672Z,2.30
2023-03-27T16:31:14.079Z,2.30
2023-03-27T16:33:43.388Z,2.20
2023-03-27T16:36:13.383Z,2.20
2023-03-27T16:38:47.644Z,2.00
2023-03-27T16:41:19.497Z,1.90
2023-03-27T16:43:48.934Z,1.80
2023-03-27T16:46:25.014Z,1.70
2023-03-27T16:48:54.066Z,1.70
2023-03-27T16:51:28.814Z,1.70
2023-03-27T16:54:03.539Z,1.70
2023-03-27T16:56:35.233Z,1.70
2023-03-27T16:59:04.889Z,1.70
2023-03-27T17:01:36.294Z,1.60
2023-03-27T17:04:05.614Z,1.60
2023-03-27T17:06:38.502Z,1.50
2023-03-27T17:09:10.482Z,1.40
2023-03-27T17:11:43.267Z,1.30
2023-03-27T17:14:12.147Z,1.20
2023-03-27T17:16:40.723Z,1.10
2023-03-27T17:19:16.588Z,1.00
2023-03-27T17:21:45.085Z,0.90
2023-03-27T17:24:14.597Z,0.80
2023-03-27T17:26:44.789Z,0.70
2023-03-27T17:29:19.511Z,0.60
2023-03-27T17:31:48.935Z,0.50
2023-03-27T17:34:25.444Z,0.50
2023-03-27T17:37:11.477Z,0.50
2023-03-27T17:39:43.092Z,0.50
2023-03-27T17:42:13.065Z,0.50
2023-03-27T17:44:44.454Z,0.40
2023-03-27T17:47:15.764Z,0.40
2023-03-27T17:49:45.297Z,0.50
2023-03-27T17:52:19.558Z,0.50
2023-03-27T17:54:52.920Z,0.60
2023-03-27T17:57:29.986Z,0.60
2023-03-27T18:00:06.460Z,0.60
2023-03-27T18:02:35.164Z,0.70
2023-03-27T18:05:05.425Z,0.70
2023-03-27T18:07:33.970Z,0.80
2023-03-27T18:10:20.342Z,0.80
2023-03-27T18:12:51.211Z,0.70
2023-03-27T18:15:36.678Z,0.50
2023-03-27T18:18:11.975Z,0.40
2023-03-27T18:20:46.487Z,0.30
2023-03-27T18:23:16.965Z,0.20
2023-03-27T18:25:51.740Z,0.20
2023-03-27T18:28:27.237Z,0.20
2023-03-27T18:31:09.694Z,0.30
2023-03-27T18:33:58.349Z,0.20
2023-03-27T18:36:35.516Z,0.20
2023-03-27T18:39:12.990Z,0.10
2023-03-27T18:41:41.291Z,0.00
2023-03-27T18:44:18.453Z,0.00
2023-03-27T18:46:46.733Z,0.00
2023-03-27T18:49:24.451Z,0.00
2023-03-27T18:51:53.891Z,-0.10
2023-03-27T18:54:31.742Z,-0.10
2023-03-27T18:57:00.753Z,-0.20
2023-03-27T18:59:39.654Z,-0.10
2023-03-27T19:02:22.375Z,0.00
2023-03-27T19:04:51.187Z,0.00
2023-03-27T19:07:29.741Z,-0.10
2023-03-27T19:10:24.004Z,-0.10
2023-03-27T19:13:02.510Z,-0.10
2023-03-27T19:15:44.596Z,-0.10
2023-03-27T19:18:22.732Z,-0.10
2023-03-27T19:21:00.008Z,-0.10
2023-03-27T19:23:58.240Z,-0.20
2023-03-27T19:26:46.630Z,-0.20
2023-03-27T19:29:18.028Z,-0.30
2023-03-27T19:32:09.822Z,-0.40
2023-03-27T19:34:45.055Z,-0.40
2023-03-27T19:37:36.476Z,-0.40
2023-03-27T19:40:29.469Z,-0.40
2023-03-27T19:43:00.505Z,-0.40
2023-03-27T19:45:41.325Z,-0.40
2023-03-27T19:48:14.884Z,-0.50
2023-03-27T19:50:49.275Z,-0.60
2023-03-27T19:57:25.936Z,-0.70
2023-03-27T20:04:26.459Z,-0.70
2023-03-27T20:07:06.607Z,-0.70
2023-03-27T20:16:45.035Z,-0.70
2023-03-27T20:19:36.408Z,-0.70
2023-03-27T20:22:16.124Z,-0.70
2023-03-27T20:24:47.710Z,-0.60
2023-03-27T20:27:40.725Z,-0.70
2023-03-27T20:30:16.540Z,-0.70
2023-03-27T20:57:50.673Z,-0.80
2023-03-27T21:05:40.436Z,-0.80
2023-03-27T21:17:04.843Z,-0.90
2023-03-27T21:19:54.119Z,-0.90
2023-03-27T21:23:12.918Z,-0.90
2023-03-27T21:36:38.430Z,-0.70
2023-03-27T21:53:01.965Z,-0.90
2023-03-27T22:40:42.628Z,-0.40
